createdAt,value
2023-05-07T00:00:06.184Z,0
2023-05-07T00:00:37.280Z,0
2023-05-07T00:01:07.715Z,0
2023-05-07T00:01:40.734Z,0
2023-05-07T00:02:12.067Z,0
2023-05-07T00:02:44.979Z,0
2023-05-07T00:03:15.948Z,0
2023-05-07T00:03:49.205Z,0
2023-05-07T00:04:20.234Z,0
2023-05-07T00:04:52.807Z,0
2023-05-07T00:05:24.219Z,0
2023-05-07T00:05:56.716Z,0
2023-05-07T00:06:27.706Z,0
2023-05-07T00:07:00.657Z,0
2023-05-07T00:07:31.942Z,0
2023-05-07T00:08:04.991Z,0
2023-05-07T00:08:36.015Z,0
2023-05-07T00:09:08.765Z,0
2023-05-07T00:09:39.901Z,0
2023-05-07T00:10:13.144Z,0
2023-05-07T00:10:44.000Z,0
2023-05-07T00:11:00.224Z,0
2023-05-07T00:11:31.862Z,0
2023-05-07T00:12:03.866Z,0
2023-05-07T00:12:36.000Z,0
2023-05-07T00:13:07.893Z,0
2023-05-07T00:13:40.658Z,0
2023-05-07T00:14:11.931Z,0
2023-05-07T00:14:44.772Z,0
2023-05-07T00:15:16.779Z,0
2023-05-07T00:15:48.989Z,0
2023-05-07T00:16:20.049Z,0
2023-05-07T00:16:52.706Z,0
2023-05-07T00:17:23.918Z,0
2023-05-07T00:17:56.765Z,0
2023-05-07T00:18:27.926Z,0
2023-05-07T00:19:00.749Z,0
2023-05-07T00:19:31.917Z,0
2023-05-07T00:20:04.799Z,0
2023-05-07T00:20:36.459Z,0
2023-05-07T00:21:08.504Z,0
2023-05-07T00:21:39.998Z,0
2023-05-07T00:22:12.755Z,0
2023-05-07T00:22:43.891Z,0
2023-05-07T00:23:16.709Z,0
2023-05-07T00:23:48.015Z,0
2023-05-07T00:24:20.533Z,0
2023-05-07T00:24:51.862Z,0
2023-05-07T00:25:25.127Z,0
2023-05-07T00:25:56.047Z,0
2023-05-07T00:26:28.992Z,0
2023-05-07T00:27:00.533Z,0
2023-05-07T00:27:32.904Z,0
2023-05-07T00:28:03.892Z,0
2023-05-07T00:28:39.275Z,0
2023-05-07T00:29:08.068Z,0
2023-05-07T00:29:40.934Z,0
2023-05-07T00:30:13.171Z,0
2023-05-07T00:30:44.991Z,0
2023-05-07T00:31:15.880Z,0
2023-05-07T00:31:48.891Z,0
2023-05-07T00:32:20.009Z,0
2023-05-07T00:32:52.967Z,0
2023-05-07T00:33:23.825Z,0
2023-05-07T00:33:56.756Z,0
2023-05-07T00:34:28.041Z,0
2023-05-07T00:35:01.330Z,0
2023-05-07T00:35:31.895Z,0
2023-05-07T00:36:04.762Z,0
2023-05-07T00:36:36.020Z,0
2023-05-07T00:37:08.669Z,0
2023-05-07T00:37:39.920Z,0
2023-05-07T00:38:12.886Z,0
2023-05-07T00:38:44.011Z,0
2023-05-07T00:39:16.798Z,0
2023-05-07T00:39:47.918Z,0
2023-05-07T00:40:21.110Z,0
2023-05-07T00:40:51.896Z,0
2023-05-07T00:41:24.898Z,0
2023-05-07T00:41:56.071Z,0
2023-05-07T00:42:29.119Z,0
2023-05-07T00:42:59.995Z,0
2023-05-07T00:43:32.805Z,0
2023-05-07T00:44:03.971Z,0
2023-05-07T00:44:36.533Z,0
2023-05-07T00:45:09.372Z,0
2023-05-07T00:45:41.028Z,0
2023-05-07T00:46:11.997Z,0
2023-05-07T00:46:44.685Z,0
2023-05-07T00:47:16.053Z,0
2023-05-07T00:47:49.060Z,0
2023-05-07T00:48:19.834Z,0
2023-05-07T00:48:52.710Z,0
2023-05-07T00:49:23.977Z,0
2023-05-07T00:49:56.772Z,0
2023-05-07T00:50:28.313Z,0
2023-05-07T00:51:00.882Z,0
2023-05-07T00:51:32.102Z,0
2023-05-07T00:52:05.088Z,0
2023-05-07T00:52:36.148Z,0
2023-05-07T00:53:08.896Z,0
2023-05-07T00:53:40.067Z,0
2023-05-07T00:54:12.889Z,0
2023-05-07T00:54:43.970Z,0
2023-05-07T00:55:17.091Z,0
2023-05-07T00:55:47.902Z,0
2023-05-07T00:56:20.801Z,0
2023-05-07T00:56:52.193Z,0
2023-05-07T00:57:24.866Z,0
2023-05-07T00:57:55.861Z,0
2023-05-07T00:58:28.686Z,0
2023-05-07T00:59:00.035Z,0
2023-05-07T00:59:32.818Z,0
2023-05-07T01:00:05.761Z,0
2023-05-07T01:00:36.768Z,0
2023-05-07T01:01:07.804Z,0
2023-05-07T01:01:40.818Z,0
2023-05-07T01:02:12.012Z,0
2023-05-07T01:02:45.019Z,0
2023-05-07T01:03:15.948Z,0
2023-05-07T01:03:48.792Z,0
2023-05-07T01:04:20.052Z,0
2023-05-07T01:04:52.918Z,0
2023-05-07T01:05:24.352Z,0
2023-05-07T01:05:56.807Z,0
2023-05-07T01:06:28.058Z,0
2023-05-07T01:07:00.813Z,0
2023-05-07T01:07:31.942Z,0
2023-05-07T01:08:04.983Z,0
2023-05-07T01:08:35.858Z,0
2023-05-07T01:09:08.683Z,0
2023-05-07T01:09:40.025Z,0
2023-05-07T01:10:13.761Z,0
2023-05-07T01:10:43.897Z,0
2023-05-07T01:11:00.450Z,0
2023-05-07T01:11:31.906Z,0
2023-05-07T01:12:03.828Z,0
2023-05-07T01:12:36.106Z,0
2023-05-07T01:13:08.118Z,0
2023-05-07T01:13:39.857Z,0
2023-05-07T01:14:11.972Z,0
2023-05-07T01:14:44.022Z,0
2023-05-07T01:15:16.767Z,0
2023-05-07T01:15:49.024Z,0
2023-05-07T01:16:20.047Z,0
2023-05-07T01:16:52.845Z,0
2023-05-07T01:17:23.962Z,0
2023-05-07T01:17:56.627Z,0
2023-05-07T01:18:28.072Z,.32
2023-05-07T01:19:00.611Z,.32
2023-05-07T01:19:32.080Z,.32
2023-05-07T01:20:04.923Z,.32
2023-05-07T01:20:35.989Z,.32
2023-05-07T01:21:08.607Z,.32
2023-05-07T01:21:39.941Z,.32
2023-05-07T01:22:13.066Z,.32
2023-05-07T01:22:43.823Z,.32
2023-05-07T01:23:00.114Z,.32
2023-05-07T01:23:31.869Z,.32
2023-05-07T01:24:03.893Z,.32
2023-05-07T01:24:37.080Z,.32
2023-05-07T01:25:08.341Z,.32
2023-05-07T01:25:40.666Z,.32
2023-05-07T01:26:11.957Z,.32
2023-05-07T01:26:45.050Z,.32
2023-05-07T01:27:15.882Z,.32
2023-05-07T01:27:48.808Z,.32
2023-05-07T01:28:19.956Z,.32
2023-05-07T01:28:52.827Z,.32
2023-05-07T01:29:23.893Z,.32
2023-05-07T01:29:56.712Z,.32
2023-05-07T01:30:29.159Z,.32
2023-05-07T01:31:00.815Z,.32
2023-05-07T01:31:32.059Z,.32
2023-05-07T01:32:04.984Z,.32
2023-05-07T01:32:36.027Z,.32
2023-05-07T01:33:08.937Z,.32
2023-05-07T01:33:39.992Z,.32
2023-05-07T01:34:12.872Z,.32
2023-05-07T01:34:43.930Z,.32
2023-05-07T01:35:16.938Z,.32
2023-05-07T01:35:47.950Z,.32
2023-05-07T01:36:20.754Z,.32
2023-05-07T01:36:51.903Z,.32
2023-05-07T01:37:24.928Z,.32
2023-05-07T01:37:56.028Z,.32
2023-05-07T01:38:28.782Z,.32
2023-05-07T01:38:59.969Z,.32
2023-05-07T01:39:32.919Z,.32
2023-05-07T01:40:04.156Z,.32
2023-05-07T01:40:36.654Z,.32
2023-05-07T01:41:07.987Z,.32
2023-05-07T01:41:40.765Z,.32
2023-05-07T01:42:11.894Z,.32
2023-05-07T01:42:44.785Z,.32
2023-05-07T01:43:15.980Z,.32
2023-05-07T01:43:48.788Z,.32
2023-05-07T01:44:19.873Z,.32
2023-05-07T01:44:52.651Z,.32
2023-05-07T01:45:25.090Z,.64
2023-05-07T01:45:56.976Z,1.12
2023-05-07T01:46:28.160Z,1.12
2023-05-07T01:47:00.827Z,1.12
2023-05-07T01:47:31.963Z,1.12
2023-05-07T01:48:04.872Z,1.12
2023-05-07T01:48:36.104Z,1.44
2023-05-07T01:49:08.890Z,1.44
2023-05-07T01:49:39.972Z,1.77
2023-05-07T01:50:13.333Z,1.77
2023-05-07T01:50:44.061Z,1.77
2023-05-07T01:51:16.544Z,1.77
2023-05-07T01:51:47.933Z,1.77
2023-05-07T01:52:20.764Z,1.77
2023-05-07T01:52:52.125Z,1.77
2023-05-07T01:53:24.765Z,1.77
2023-05-07T01:53:55.943Z,1.77
2023-05-07T01:54:28.731Z,1.44
2023-05-07T01:55:00.177Z,1.44
2023-05-07T01:55:33.014Z,1.44
2023-05-07T01:56:04.020Z,1.44
2023-05-07T01:56:37.619Z,1.44
2023-05-07T01:57:07.906Z,1.77
2023-05-07T01:57:40.811Z,1.44
2023-05-07T01:58:12.012Z,1.44
2023-05-07T01:58:44.679Z,1.44
2023-05-07T01:59:15.966Z,1.44
2023-05-07T01:59:48.822Z,1.44
2023-05-07T02:00:21.358Z,1.44
2023-05-07T02:00:52.870Z,1.44
2023-05-07T02:01:24.024Z,1.44
2023-05-07T02:01:57.035Z,1.44
2023-05-07T02:02:28.035Z,1.44
2023-05-07T02:03:00.771Z,1.44
2023-05-07T02:03:32.197Z,1.44
2023-05-07T02:04:04.646Z,1.44
2023-05-07T02:04:35.973Z,1.44
2023-05-07T02:05:09.171Z,1.44
2023-05-07T02:05:40.063Z,1.12
2023-05-07T02:06:12.739Z,1.12
2023-05-07T02:06:44.049Z,1.12
2023-05-07T02:07:16.927Z,1.12
2023-05-07T02:07:47.970Z,1.12
2023-05-07T02:08:20.785Z,1.44
2023-05-07T02:08:52.051Z,1.44
2023-05-07T02:09:24.966Z,1.44
2023-05-07T02:09:56.012Z,1.44
2023-05-07T02:10:29.025Z,1.44
2023-05-07T02:11:00.160Z,1.44
2023-05-07T02:11:32.640Z,1.44
2023-05-07T02:12:04.021Z,1.12
2023-05-07T02:12:37.007Z,1.12
2023-05-07T02:13:08.166Z,1.12
2023-05-07T02:13:40.732Z,.64
2023-05-07T02:14:12.127Z,.64
2023-05-07T02:14:44.870Z,.64
2023-05-07T02:15:16.771Z,.64
2023-05-07T02:15:48.940Z,.64
2023-05-07T02:16:20.031Z,.64
2023-05-07T02:16:52.922Z,.32
2023-05-07T02:17:24.024Z,.32
2023-05-07T02:17:56.657Z,.32
2023-05-07T02:18:28.054Z,.32
2023-05-07T02:19:00.825Z,.32
2023-05-07T02:19:32.054Z,.64
2023-05-07T02:20:05.023Z,.64
2023-05-07T02:20:36.088Z,.64
2023-05-07T02:21:08.585Z,1.12
2023-05-07T02:21:40.056Z,1.12
2023-05-07T02:22:12.903Z,1.12
2023-05-07T02:22:44.013Z,1.12
2023-05-07T02:23:00.225Z,1.12
2023-05-07T02:23:31.944Z,1.12
2023-05-07T02:24:03.942Z,1.12
2023-05-07T02:24:36.837Z,1.12
2023-05-07T02:25:08.317Z,1.12
2023-05-07T02:25:40.604Z,1.12
2023-05-07T02:26:12.038Z,.64
2023-05-07T02:26:44.785Z,.64
2023-05-07T02:27:15.977Z,.64
2023-05-07T02:27:48.607Z,.64
2023-05-07T02:28:19.958Z,.32
2023-05-07T02:28:52.796Z,.32
2023-05-07T02:29:23.956Z,.32
2023-05-07T02:29:56.575Z,.32
2023-05-07T02:30:29.055Z,.32
2023-05-07T02:31:00.638Z,0
2023-05-07T02:31:32.002Z,0
2023-05-07T02:32:05.011Z,0
2023-05-07T02:32:36.090Z,0
2023-05-07T02:33:08.648Z,.32
2023-05-07T02:33:39.978Z,.32
2023-05-07T02:34:12.754Z,0
2023-05-07T02:34:43.986Z,.32
2023-05-07T02:35:17.121Z,.32
2023-05-07T02:35:47.972Z,.32
2023-05-07T02:36:20.992Z,0
2023-05-07T02:36:52.140Z,0
2023-05-07T02:37:24.887Z,0
2023-05-07T02:37:56.150Z,0
2023-05-07T02:38:28.675Z,0
2023-05-07T02:39:00.156Z,0
2023-05-07T02:39:32.805Z,0
2023-05-07T02:40:04.472Z,0
2023-05-07T02:40:36.864Z,.32
2023-05-07T02:41:08.135Z,.32
2023-05-07T02:41:40.899Z,.32
2023-05-07T02:42:11.976Z,.32
2023-05-07T02:42:44.752Z,.32
2023-05-07T02:43:16.129Z,.32
2023-05-07T02:43:48.934Z,.32
2023-05-07T02:44:20.065Z,.32
2023-05-07T02:44:52.761Z,0
2023-05-07T02:45:25.017Z,0
2023-05-07T02:45:56.944Z,0
2023-05-07T02:46:28.081Z,0
2023-05-07T02:47:00.988Z,0
2023-05-07T02:47:32.185Z,0
2023-05-07T02:48:05.028Z,0
2023-05-07T02:48:35.992Z,0
2023-05-07T02:49:08.690Z,0
2023-05-07T02:49:39.889Z,0
2023-05-07T02:50:13.551Z,0
2023-05-07T02:50:44.060Z,0
2023-05-07T02:51:16.772Z,0
2023-05-07T02:51:47.980Z,0
2023-05-07T02:52:20.694Z,0
2023-05-07T02:52:52.132Z,0
2023-05-07T02:53:24.793Z,0
2023-05-07T02:53:56.038Z,0
2023-05-07T02:54:29.836Z,0
2023-05-07T02:55:00.140Z,0
2023-05-07T02:55:33.142Z,0
2023-05-07T02:56:03.974Z,0
2023-05-07T02:56:52.330Z,0
2023-05-07T02:57:24.121Z,0
2023-05-07T02:57:55.911Z,.32
2023-05-07T02:58:28.855Z,.32
2023-05-07T02:59:00.176Z,.32
2023-05-07T02:59:32.772Z,.32
2023-05-07T03:00:05.475Z,.32
2023-05-07T03:00:39.189Z,.64
2023-05-07T03:01:08.251Z,.64
2023-05-07T03:01:40.757Z,.64
2023-05-07T03:02:11.921Z,1.12
2023-05-07T03:02:44.950Z,1.12
2023-05-07T03:03:16.108Z,1.12
2023-05-07T03:03:48.880Z,1.12
2023-05-07T03:04:20.113Z,1.12
2023-05-07T03:04:52.762Z,1.12
2023-05-07T03:05:24.280Z,1.12
2023-05-07T03:05:56.842Z,1.12
2023-05-07T03:06:28.047Z,1.12
2023-05-07T03:07:00.709Z,1.12
2023-05-07T03:07:32.152Z,1.12
2023-05-07T03:08:05.036Z,1.12
2023-05-07T03:08:36.126Z,1.12
2023-05-07T03:09:08.795Z,1.12
2023-05-07T03:09:40.042Z,.64
2023-05-07T03:10:13.321Z,.64
2023-05-07T03:10:43.937Z,.64
2023-05-07T03:11:16.934Z,.64
2023-05-07T03:11:48.114Z,.32
2023-05-07T03:12:20.915Z,.32
2023-05-07T03:12:51.974Z,.32
2023-05-07T03:13:24.852Z,.64
2023-05-07T03:13:56.210Z,.64
2023-05-07T03:14:28.908Z,1.12
2023-05-07T03:15:00.024Z,.64
2023-05-07T03:15:34.317Z,.32
2023-05-07T03:16:04.061Z,.32
2023-05-07T03:16:37.025Z,.32
2023-05-07T03:17:07.950Z,.32
2023-05-07T03:17:41.084Z,.32
2023-05-07T03:18:12.014Z,.32
2023-05-07T03:18:45.020Z,.32
2023-05-07T03:19:16.057Z,.32
2023-05-07T03:19:48.820Z,.32
2023-05-07T03:20:20.242Z,.32
2023-05-07T03:20:52.927Z,.32
2023-05-07T03:21:23.818Z,.32
2023-05-07T03:21:56.866Z,0
2023-05-07T03:22:28.060Z,0
2023-05-07T03:23:01.083Z,0
2023-05-07T03:23:31.971Z,0
2023-05-07T03:24:04.895Z,0
2023-05-07T03:24:36.232Z,0
2023-05-07T03:25:09.108Z,0
2023-05-07T03:25:39.946Z,0
2023-05-07T03:26:12.657Z,0
2023-05-07T03:26:44.177Z,0
2023-05-07T03:27:16.870Z,0
2023-05-07T03:27:48.125Z,0
2023-05-07T03:28:20.800Z,.32
2023-05-07T03:28:51.919Z,0
2023-05-07T03:29:24.808Z,.32
2023-05-07T03:29:56.150Z,0
2023-05-07T03:30:29.838Z,0
2023-05-07T03:31:00.296Z,0
2023-05-07T03:31:32.942Z,0
2023-05-07T03:32:03.920Z,0
2023-05-07T03:32:37.659Z,.32
2023-05-07T03:33:08.085Z,.32
2023-05-07T03:33:40.779Z,.32
2023-05-07T03:34:11.919Z,.32
2023-05-07T03:34:44.819Z,.64
2023-05-07T03:35:16.360Z,1.12
2023-05-07T03:35:48.865Z,1.12
2023-05-07T03:36:20.118Z,1.12
2023-05-07T03:36:52.887Z,1.12
2023-05-07T03:37:24.300Z,1.12
2023-05-07T03:37:57.030Z,1.44
2023-05-07T03:38:28.094Z,1.44
2023-05-07T03:39:00.993Z,1.44
2023-05-07T03:39:31.982Z,1.44
2023-05-07T03:40:05.179Z,1.44
2023-05-07T03:40:36.242Z,1.77
2023-05-07T03:41:08.959Z,1.77
2023-05-07T03:41:40.008Z,1.77
2023-05-07T03:42:13.026Z,1.77
2023-05-07T03:42:44.595Z,1.77
2023-05-07T03:43:16.931Z,1.77
2023-05-07T03:43:48.132Z,1.77
2023-05-07T03:44:20.847Z,1.77
2023-05-07T03:44:52.216Z,1.77
2023-05-07T03:45:26.033Z,1.44
2023-05-07T03:45:56.276Z,1.44
2023-05-07T03:46:28.942Z,1.44
2023-05-07T03:46:59.998Z,1.44
2023-05-07T03:47:33.222Z,1.77
2023-05-07T03:48:04.345Z,1.77
2023-05-07T03:48:37.987Z,1.77
2023-05-07T03:49:08.233Z,1.77
2023-05-07T03:49:41.001Z,1.77
2023-05-07T03:50:12.905Z,1.77
2023-05-07T03:50:45.127Z,1.77
2023-05-07T03:51:16.306Z,2.09
2023-05-07T03:51:49.180Z,2.09
2023-05-07T03:52:20.232Z,2.09
2023-05-07T03:52:53.072Z,2.09
2023-05-07T03:53:24.355Z,2.09
2023-05-07T03:53:57.098Z,2.09
2023-05-07T03:54:28.233Z,2.09
2023-05-07T03:55:01.568Z,2.09
2023-05-07T03:55:32.562Z,2.09
2023-05-07T03:56:05.140Z,2.09
2023-05-07T03:56:36.265Z,2.09
2023-05-07T03:57:09.127Z,2.09
2023-05-07T03:57:40.351Z,1.77
2023-05-07T03:58:13.151Z,1.77
2023-05-07T03:58:44.255Z,1.77
2023-05-07T03:59:17.061Z,1.77
2023-05-07T03:59:48.210Z,1.77
2023-05-07T04:00:22.623Z,1.44
2023-05-07T04:00:52.460Z,1.44
2023-05-07T04:01:25.011Z,1.44
2023-05-07T04:01:56.226Z,1.12
2023-05-07T04:02:29.438Z,1.12
2023-05-07T04:03:00.461Z,.64
2023-05-07T04:03:33.043Z,.32
2023-05-07T04:04:04.322Z,.32
2023-05-07T04:04:37.030Z,0
2023-05-07T04:05:08.354Z,0
2023-05-07T04:05:40.944Z,0
2023-05-07T04:06:12.349Z,0
2023-05-07T04:06:45.085Z,0
2023-05-07T04:07:16.296Z,0
2023-05-07T04:07:49.335Z,0
2023-05-07T04:08:20.362Z,0
2023-05-07T04:08:53.091Z,0
2023-05-07T04:09:24.232Z,0
2023-05-07T04:09:57.027Z,0
2023-05-07T04:10:28.706Z,0
2023-05-07T04:11:01.264Z,0
2023-05-07T04:11:32.327Z,0
2023-05-07T04:12:05.227Z,0
2023-05-07T04:12:36.289Z,0
2023-05-07T04:13:09.093Z,0
2023-05-07T04:13:40.313Z,0
2023-05-07T04:14:13.093Z,0
2023-05-07T04:14:44.195Z,.32
2023-05-07T04:15:17.990Z,.64
2023-05-07T04:15:48.398Z,.64
2023-05-07T04:16:20.943Z,.64
2023-05-07T04:16:52.369Z,.64
2023-05-07T04:17:25.321Z,1.12
2023-05-07T04:17:56.294Z,1.12
2023-05-07T04:18:28.981Z,1.12
2023-05-07T04:19:00.364Z,1.12
2023-05-07T04:19:33.069Z,1.12
2023-05-07T04:20:04.428Z,1.12
2023-05-07T04:20:37.179Z,1.12
2023-05-07T04:21:08.474Z,1.12
2023-05-07T04:21:41.280Z,1.12
2023-05-07T04:22:12.189Z,1.12
2023-05-07T04:22:45.381Z,1.12
2023-05-07T04:23:16.464Z,1.12
2023-05-07T04:23:48.850Z,1.12
2023-05-07T04:24:20.192Z,.64
2023-05-07T04:24:53.021Z,.64
2023-05-07T04:25:24.683Z,.64
2023-05-07T04:25:57.016Z,.64
2023-05-07T04:26:28.432Z,.64
2023-05-07T04:27:01.423Z,.64
2023-05-07T04:27:32.222Z,.64
2023-05-07T04:28:05.168Z,.64
2023-05-07T04:28:36.244Z,.64
2023-05-07T04:29:09.111Z,.64
2023-05-07T04:29:40.207Z,.64
2023-05-07T04:30:14.620Z,.64
2023-05-07T04:30:44.435Z,.64
2023-05-07T04:31:17.039Z,.64
2023-05-07T04:31:48.301Z,.64
2023-05-07T04:32:21.342Z,.64
2023-05-07T04:32:52.159Z,1.12
2023-05-07T04:33:25.017Z,1.12
2023-05-07T04:33:56.373Z,1.12
2023-05-07T04:34:29.158Z,1.12
2023-05-07T04:35:00.636Z,1.12
2023-05-07T04:35:33.045Z,1.44
2023-05-07T04:36:04.340Z,1.44
2023-05-07T04:36:37.754Z,1.44
2023-05-07T04:37:08.203Z,1.44
2023-05-07T04:37:41.281Z,1.44
2023-05-07T04:38:12.309Z,1.44
2023-05-07T04:38:45.038Z,1.44
2023-05-07T04:39:16.244Z,1.44
2023-05-07T04:39:49.104Z,1.44
2023-05-07T04:40:20.531Z,1.77
2023-05-07T04:40:53.104Z,1.77
2023-05-07T04:41:24.305Z,1.77
2023-05-07T04:41:57.391Z,1.77
2023-05-07T04:42:28.305Z,1.77
2023-05-07T04:43:01.114Z,1.77
2023-05-07T04:43:32.338Z,1.77
2023-05-07T04:44:05.407Z,1.77
2023-05-07T04:44:36.188Z,1.77
2023-05-07T04:45:10.744Z,1.77
2023-05-07T04:45:40.461Z,1.77
2023-05-07T04:46:13.275Z,2.09
2023-05-07T04:46:44.465Z,2.09
2023-05-07T04:47:17.504Z,2.09
2023-05-07T04:47:48.566Z,2.09
2023-05-07T04:48:21.125Z,2.09
2023-05-07T04:48:52.339Z,2.09
2023-05-07T04:49:25.195Z,2.09
2023-05-07T04:49:56.251Z,2.09
2023-05-07T04:50:29.673Z,2.09
2023-05-07T04:51:00.488Z,2.09
2023-05-07T04:51:33.262Z,2.09
2023-05-07T04:52:04.350Z,2.09
2023-05-07T04:52:37.278Z,2.09
2023-05-07T04:53:08.466Z,2.09
2023-05-07T04:53:41.185Z,2.09
2023-05-07T04:54:12.255Z,2.09
2023-05-07T04:54:45.263Z,2.09
2023-05-07T04:55:16.582Z,2.09
2023-05-07T04:55:49.171Z,2.09
2023-05-07T04:56:20.278Z,2.09
2023-05-07T04:56:53.002Z,2.57
2023-05-07T04:57:24.273Z,2.57
2023-05-07T04:57:57.240Z,2.57
2023-05-07T04:58:28.382Z,2.57
2023-05-07T04:59:01.252Z,2.57
2023-05-07T04:59:32.327Z,2.09
2023-05-07T05:00:06.529Z,2.57
2023-05-07T05:00:36.280Z,2.57
2023-05-07T05:01:09.167Z,2.57
2023-05-07T05:01:40.431Z,2.89
2023-05-07T05:02:13.416Z,2.89
2023-05-07T05:02:44.365Z,2.89
2023-05-07T05:03:17.051Z,3.54
2023-05-07T05:03:48.363Z,3.54
2023-05-07T05:04:20.970Z,3.54
2023-05-07T05:04:52.231Z,3.54
2023-05-07T05:05:25.375Z,3.54
2023-05-07T05:05:56.513Z,3.54
2023-05-07T05:06:29.021Z,3.54
2023-05-07T05:07:00.365Z,3.54
2023-05-07T05:07:33.378Z,3.54
2023-05-07T05:08:04.254Z,3.54
2023-05-07T05:08:36.969Z,3.54
2023-05-07T05:09:08.366Z,3.54
2023-05-07T05:09:41.209Z,3.54
2023-05-07T05:10:12.671Z,2.89
2023-05-07T05:10:45.092Z,2.89
2023-05-07T05:11:16.343Z,2.89
2023-05-07T05:11:48.907Z,2.89
2023-05-07T05:12:20.305Z,2.89
2023-05-07T05:12:53.357Z,2.89
2023-05-07T05:13:24.410Z,2.89
2023-05-07T05:13:57.025Z,2.89
2023-05-07T05:14:28.384Z,2.89
2023-05-07T05:15:02.871Z,2.89
2023-05-07T05:15:33.887Z,2.89
2023-05-07T05:16:05.063Z,2.89
2023-05-07T05:16:36.344Z,2.89
2023-05-07T05:17:09.143Z,2.89
2023-05-07T05:17:40.294Z,2.89
2023-05-07T05:18:13.184Z,2.89
2023-05-07T05:18:44.438Z,3.54
2023-05-07T05:19:17.126Z,3.54
2023-05-07T05:19:48.324Z,3.54
2023-05-07T05:20:21.378Z,3.54
2023-05-07T05:20:52.304Z,3.54
2023-05-07T05:21:25.976Z,4.02
2023-05-07T05:21:56.322Z,4.02
2023-05-07T05:22:30.136Z,4.02
2023-05-07T05:23:00.239Z,4.02
2023-05-07T05:23:33.274Z,4.02
2023-05-07T05:24:04.258Z,4.02
2023-05-07T05:24:37.344Z,4.02
2023-05-07T05:25:08.553Z,4.02
2023-05-07T05:25:41.236Z,4.02
2023-05-07T05:26:12.186Z,4.02
2023-05-07T05:26:45.062Z,4.02
2023-05-07T05:27:16.380Z,4.02
2023-05-07T05:27:49.278Z,4.34
2023-05-07T05:28:20.229Z,4.02
2023-05-07T05:28:53.120Z,4.34
2023-05-07T05:29:24.341Z,4.98
2023-05-07T05:29:57.102Z,4.98
2023-05-07T05:30:29.490Z,5.47
2023-05-07T05:31:01.502Z,4.98
2023-05-07T05:31:32.296Z,4.98
2023-05-07T05:32:05.240Z,5.47
2023-05-07T05:32:36.323Z,5.47
2023-05-07T05:33:09.202Z,5.47
2023-05-07T05:33:40.225Z,5.47
2023-05-07T05:34:13.020Z,5.47
2023-05-07T05:34:44.402Z,5.47
2023-05-07T05:35:17.334Z,5.47
2023-05-07T05:35:48.176Z,5.47
2023-05-07T05:36:21.047Z,5.47
2023-05-07T05:36:52.191Z,4.34
2023-05-07T05:37:25.049Z,3.54
2023-05-07T05:37:56.228Z,4.02
2023-05-07T05:38:29.111Z,4.02
2023-05-07T05:39:00.351Z,4.02
2023-05-07T05:39:33.296Z,4.02
2023-05-07T05:40:04.709Z,4.02
2023-05-07T05:40:37.067Z,3.54
2023-05-07T05:41:08.304Z,4.02
2023-05-07T05:41:41.173Z,4.02
2023-05-07T05:42:12.207Z,4.02
2023-05-07T05:42:45.313Z,4.02
2023-05-07T05:43:16.355Z,4.02
2023-05-07T05:43:49.282Z,3.54
2023-05-07T05:44:20.321Z,3.54
2023-05-07T05:44:53.108Z,3.54
2023-05-07T05:45:25.286Z,4.02
2023-05-07T05:45:57.472Z,4.02
2023-05-07T05:46:28.297Z,4.02
2023-05-07T05:47:01.250Z,4.02
2023-05-07T05:47:32.481Z,4.02
2023-05-07T05:48:05.173Z,4.02
2023-05-07T05:48:36.382Z,3.54
2023-05-07T05:49:09.322Z,3.54
2023-05-07T05:49:40.332Z,3.54
2023-05-07T05:50:13.397Z,3.54
2023-05-07T05:50:44.456Z,3.54
2023-05-07T05:51:16.974Z,3.54
2023-05-07T05:51:48.235Z,3.54
2023-05-07T05:52:21.080Z,3.21
2023-05-07T05:52:52.383Z,3.21
2023-05-07T05:53:25.154Z,3.54
2023-05-07T05:53:56.242Z,3.54
2023-05-07T05:54:29.504Z,3.54
2023-05-07T05:55:00.794Z,4.02
2023-05-07T05:55:33.225Z,4.02
2023-05-07T05:56:04.386Z,4.02
2023-05-07T05:56:37.113Z,4.02
2023-05-07T05:57:08.216Z,4.02
2023-05-07T05:57:41.252Z,4.02
2023-05-07T05:58:12.337Z,4.02
2023-05-07T05:58:45.424Z,4.02
2023-05-07T05:59:16.406Z,4.02
2023-05-07T05:59:49.141Z,4.02
2023-05-07T06:00:21.801Z,4.66
2023-05-07T06:00:53.149Z,4.66
2023-05-07T06:01:24.303Z,4.66
2023-05-07T06:01:57.303Z,4.66
2023-05-07T06:02:28.269Z,4.66
2023-05-07T06:03:01.297Z,4.98
2023-05-07T06:03:32.457Z,4.98
2023-05-07T06:04:06.342Z,4.98
2023-05-07T06:04:36.303Z,4.66
2023-05-07T06:05:09.426Z,4.66
2023-05-07T06:05:40.348Z,4.66
2023-05-07T06:06:12.961Z,4.66
2023-05-07T06:06:44.275Z,4.66
2023-05-07T06:07:17.475Z,4.66
2023-05-07T06:07:48.504Z,4.66
2023-05-07T06:08:21.511Z,4.66
2023-05-07T06:08:52.619Z,4.66
2023-05-07T06:09:25.598Z,4.02
2023-05-07T06:09:56.641Z,4.02
2023-05-07T06:10:29.982Z,4.02
2023-05-07T06:11:00.875Z,3.54
2023-05-07T06:11:33.512Z,3.54
2023-05-07T06:12:04.660Z,3.54
2023-05-07T06:12:37.914Z,3.54
2023-05-07T06:13:08.640Z,3.54
2023-05-07T06:13:41.661Z,3.54
2023-05-07T06:14:12.686Z,3.54
2023-05-07T06:14:45.478Z,3.54
2023-05-07T06:15:17.504Z,3.54
2023-05-07T06:15:51.685Z,3.54
2023-05-07T06:16:20.771Z,3.21
2023-05-07T06:16:53.422Z,3.21
2023-05-07T06:17:24.771Z,3.21
2023-05-07T06:17:57.619Z,3.21
2023-05-07T06:18:28.625Z,3.21
2023-05-07T06:19:01.514Z,3.21
2023-05-07T06:19:32.689Z,3.21
2023-05-07T06:20:05.893Z,3.21
2023-05-07T06:20:36.528Z,3.21
2023-05-07T06:21:09.792Z,3.21
2023-05-07T06:21:40.770Z,3.54
2023-05-07T06:22:13.580Z,4.02
2023-05-07T06:22:44.760Z,3.54
2023-05-07T06:23:18.188Z,3.54
2023-05-07T06:23:48.652Z,3.21
2023-05-07T06:24:21.491Z,3.21
2023-05-07T06:24:52.673Z,3.21
2023-05-07T06:25:25.566Z,3.21
2023-05-07T06:25:56.621Z,3.54
2023-05-07T06:26:29.808Z,4.98
2023-05-07T06:27:00.934Z,4.98
2023-05-07T06:27:33.459Z,5.47
2023-05-07T06:28:04.702Z,4.98
2023-05-07T06:28:37.636Z,4.98
2023-05-07T06:29:08.723Z,4.34
2023-05-07T06:29:41.308Z,4.02
2023-05-07T06:30:13.752Z,4.02
2023-05-07T06:30:45.412Z,3.54
2023-05-07T06:31:16.866Z,3.21
2023-05-07T06:31:49.578Z,3.21
2023-05-07T06:32:20.674Z,3.21
2023-05-07T06:32:53.681Z,2.89
2023-05-07T06:33:24.707Z,2.89
2023-05-07T06:33:57.563Z,2.89
2023-05-07T06:34:28.564Z,3.21
2023-05-07T06:35:01.785Z,3.21
2023-05-07T06:35:32.616Z,2.89
2023-05-07T06:36:07.354Z,2.89
2023-05-07T06:37:24.572Z,2.09
2023-05-07T06:37:56.681Z,2.09
2023-05-07T06:38:28.613Z,1.44
2023-05-07T06:39:00.720Z,1.44
2023-05-07T06:39:33.647Z,1.44
2023-05-07T06:40:04.888Z,1.44
2023-05-07T06:40:37.512Z,1.44
2023-05-07T06:41:08.686Z,1.44
2023-05-07T06:41:41.376Z,1.44
2023-05-07T06:42:12.779Z,1.44
2023-05-07T06:42:45.409Z,1.44
2023-05-07T06:43:16.648Z,1.44
2023-05-07T06:43:49.361Z,1.44
2023-05-07T06:44:20.626Z,1.77
2023-05-07T06:44:53.460Z,1.77
2023-05-07T06:45:25.673Z,1.77
2023-05-07T06:45:57.694Z,1.77
2023-05-07T06:46:28.643Z,1.77
2023-05-07T06:47:01.470Z,1.77
2023-05-07T06:47:32.831Z,1.77
2023-05-07T06:48:05.563Z,1.77
2023-05-07T06:48:36.690Z,1.77
2023-05-07T06:49:09.605Z,2.09
2023-05-07T06:49:40.643Z,2.09
2023-05-07T06:50:13.644Z,2.57
2023-05-07T06:50:44.559Z,2.57
2023-05-07T06:51:17.401Z,2.57
2023-05-07T06:51:48.601Z,2.57
2023-05-07T06:52:21.576Z,2.57
2023-05-07T06:52:52.705Z,2.57
2023-05-07T06:53:25.274Z,2.57
2023-05-07T06:53:56.522Z,2.57
2023-05-07T06:54:29.361Z,2.89
2023-05-07T06:55:01.282Z,3.21
2023-05-07T06:55:33.481Z,3.54
2023-05-07T06:56:04.756Z,4.02
2023-05-07T06:56:37.420Z,4.02
2023-05-07T06:57:08.557Z,4.02
2023-05-07T06:57:41.536Z,4.02
2023-05-07T06:58:12.699Z,4.02
2023-05-07T06:58:45.556Z,4.02
2023-05-07T06:59:16.633Z,4.34
2023-05-07T06:59:49.418Z,4.66
2023-05-07T07:00:22.167Z,4.34
2023-05-07T07:00:54.336Z,4.02
2023-05-07T07:01:24.748Z,4.02
2023-05-07T07:01:57.461Z,4.02
2023-05-07T07:02:28.702Z,4.02
2023-05-07T07:03:01.653Z,4.02
2023-05-07T07:03:32.765Z,4.02
2023-05-07T07:04:05.392Z,4.02
2023-05-07T07:04:36.595Z,4.02
2023-05-07T07:05:09.750Z,3.54
2023-05-07T07:05:40.564Z,3.54
2023-05-07T07:06:14.347Z,2.89
2023-05-07T07:06:44.722Z,2.89
2023-05-07T07:07:17.460Z,2.89
2023-05-07T07:07:48.609Z,3.54
2023-05-07T07:08:21.513Z,3.21
2023-05-07T07:08:52.765Z,3.21
2023-05-07T07:09:25.229Z,2.89
2023-05-07T07:09:56.587Z,3.21
2023-05-07T07:10:29.845Z,3.21
2023-05-07T07:11:00.782Z,3.21
2023-05-07T07:11:33.507Z,3.21
2023-05-07T07:12:04.620Z,3.54
2023-05-07T07:12:37.385Z,3.54
2023-05-07T07:13:08.625Z,4.02
2023-05-07T07:13:41.409Z,4.66
2023-05-07T07:14:12.659Z,4.98
2023-05-07T07:14:45.332Z,4.98
2023-05-07T07:15:17.505Z,4.98
2023-05-07T07:15:49.709Z,4.98
2023-05-07T07:16:20.856Z,4.98
2023-05-07T07:16:53.651Z,4.98
2023-05-07T07:17:24.824Z,5.79
2023-05-07T07:17:57.912Z,6.11
2023-05-07T07:18:28.719Z,6.11
2023-05-07T07:19:01.627Z,6.11
2023-05-07T07:19:32.835Z,6.11
2023-05-07T07:20:06.522Z,5.79